x

8454049 - Quonset Point, Ri (qptr1) Weather Station

12:54 - Mon 26th Sep 2016 All times are EDT. -4 hours from GMT.

  • Wind
    6mph, 7mph gusts
  • Sea Temp 69°f
  • Ar Temp 53°f
  • Sea Pressure 1022.8mb
  • 8454049 - Quonset Point, Ri
  • 8454049 - Quonset Point, Ri

More Historic Weather Station data

Upgrade to MSW Pro to gain access to the past 30 days of data for over 8000 Wavebouys and Weather Stations around the globe.

Join Pro

Comparision Forecast

View Surf forecast
   
Seg 09/26 12:54 6 7 mph 1022.8mb 69f 53f
12:48 7 10 mph 1022.8mb 69f 53f
12:42 6 8 mph 1022.7mb 69f 54f
12:36 6 9 mph 1022.7mb 69f 54f
12:30 7 11 mph 1022.6mb - -
12:24 7 13 mph 1022.6mb 69f 55f
12:18 8 10 mph 1022.6mb 69f 55f
12:12 8 10 mph 1022.6mb 69f 55f
12:06 8 11 mph 1022.4mb 69f 55f
12:00 7 8 mph 1022.5mb 69f 55f
Dom 09/25 11:54 5 6 mph 1022.5mb 69f 54f
11:48 6 7 mph 1022.4mb - -
11:42 6 7 mph 1022.4mb 70f 55f
11:36 6 8 mph 1022.4mb 70f 55f
11:30 6 9 mph 1022.4mb 70f 55f
11:24 6 8 mph 1022.4mb 70f 55f
11:18 6 8 mph 1022.4mb 70f 55f
11:12 6 8 mph 1022.4mb 70f 55f
11:06 6 8 mph 1022.2mb 70f 56f
11:00 7 8 mph 1022.2mb 70f 55f
10:54 7 10 mph 1022.2mb 70f 56f
10:48 7 10 mph 1022mb 70f 56f
10:42 8 11 mph 1022mb 70f 56f
10:36 7 8 mph 1022.1mb 70f 56f
10:30 7 10 mph 1022.1mb 70f 56f
10:24 7 10 mph 1022mb 70f 56f
10:18 6 9 mph - - -
10:12 7 8 mph - 70f 56f
10:06 7 9 mph - 70f 56f
10:00 7 8 mph 1022mb 70f 57f
9:54 7 9 mph 1021.8mb 70f 57f
9:48 6 8 mph - 70f -
9:42 7 8 mph - 70f 56f
9:36 6 7 mph - 70f 56f
9:30 6 9 mph 1021.7mb 70f 56f
9:24 8 9 mph 1021.6mb 70f 57f
9:18 7 10 mph 1021.5mb - -
9:12 8 9 mph 1021.4mb 70f 57f
9:06 7 8 mph 1021.5mb 70f 58f
9:00 5 7 mph 1021.6mb 70f 58f
8:54 6 8 mph 1021.4mb 70f 58f
8:48 7 9 mph 1021.3mb - -
8:42 7 8 mph 1021.2mb 70f 59f
8:36 6 8 mph 1021.2mb 70f 59f
8:30 5 7 mph 1021.1mb 70f 59f
8:24 5 6 mph 1021.1mb 70f 59f
8:18 5 7 mph 1021.1mb - -
8:12 6 8 mph 1021mb 70f 60f
8:06 6 8 mph 1020.9mb 70f 60f
8:00 6 8 mph 1020.9mb 70f 60f
7:54 6 8 mph 1020.8mb 70f 60f
7:48 6 8 mph 1020.6mb 70f -
7:42 7 8 mph 1020.5mb 70f -
7:36 6 8 mph 1020.4mb 70f -
7:24 6 7 mph - 70f 61f
7:18 6 7 mph 1020.3mb - -
7:12 6 8 mph 1020.2mb 70f 61f
7:06 8 9 mph 1020.1mb 70f 62f
7:00 6 7 mph 1020mb 70f 62f
6:54 6 9 mph 1019.9mb 70f 63f
6:48 7 9 mph 1019.8mb - -
6:42 7 10 mph 1019.7mb 70f -
6:36 7 11 mph 1019.6mb 70f -
6:30 7 9 mph 1019.5mb 70f 64f
6:24 9 11 mph 1019.3mb 70f 64f
6:18 9 14 mph 1019.2mb - -
6:12 9 13 mph 1019.1mb 70f 64f
6:06 9 14 mph 1019.1mb 70f 65f
6:00 9 15 mph 1019mb 70f 65f
5:54 9 13 mph 1018.9mb 70f 65f
5:48 9 11 mph 1018.9mb 70f -
5:42 9 16 mph 1018.9mb 70f 65f
5:36 13 18 mph 1018.8mb 70f 65f
5:30 13 17 mph 1018.8mb 70f -
5:24 10 14 mph 1018.8mb 70f 66f
5:18 13 15 mph 1018.7mb 70f 66f
5:12 11 15 mph 1018.7mb 70f 66f
5:06 15 18 mph 1018.6mb 70f 66f
5:00 14 18 mph 1018.6mb 70f 66f
4:54 14 18 mph 1018.5mb 70f 66f
4:48 13 16 mph 1018.5mb 70f 65f
4:36 13 16 mph 1018.5mb 70f 66f
4:30 10 15 mph 1018.5mb 70f 66f
4:24 15 20 mph 1018.5mb 70f 65f
4:18 10 17 mph 1018.4mb 70f 66f
4:12 11 17 mph 1018.4mb 70f 65f
4:06 15 21 mph 1018.3mb 70f 65f
4:00 10 18 mph 1018.3mb 70f 65f
3:54 13 20 mph 1018.3mb 70f 65f
3:48 15 20 mph 1018.3mb 70f 65f
3:42 15 18 mph 1018.4mb 70f 65f
3:36 13 22 mph 1018.5mb 70f 66f
3:30 14 18 mph 1018.5mb 70f 65f
3:24 11 17 mph 1018.6mb 70f 65f
3:18 16 23 mph 1018.6mb 70f 65f
3:12 13 16 mph 1018.7mb 70f 65f
3:06 14 21 mph 1018.7mb 70f 65f
3:00 10 17 mph 1018.7mb 70f 65f
2:54 9 18 mph 1018.8mb 70f 64f
2:48 13 20 mph 1018.8mb 70f 64f
2:42 17 20 mph 1018.8mb 70f 64f
2:36 14 17 mph 1018.9mb 70f 64f
2:30 15 20 mph 1018.9mb 70f 64f
2:24 13 17 mph 1018.9mb 70f 64f
2:18 13 18 mph 1018.9mb 70f 63f
2:12 11 17 mph 1018.9mb 70f 64f
2:06 10 22 mph 1019.1mb 70f 63f
2:00 13 20 mph 1019mb 70f 63f
1:54 8 14 mph 1019.2mb 70f 63f
1:48 10 16 mph 1019.2mb 70f 63f
1:42 8 14 mph 1019.3mb 70f 63f
1:36 11 14 mph 1019.4mb 70f 62f
1:30 10 18 mph 1019.5mb 70f 62f
1:24 13 18 mph 1019.6mb 70f 62f
1:18 10 18 mph 1019.7mb 70f 62f
1:12 11 22 mph 1019.7mb 70f 62f
1:06 14 20 mph 1019.8mb 70f 62f
1:00 14 21 mph 1019.9mb 70f 61f
12:54 15 20 mph 1019.9mb 70f 61f
12:48 16 22 mph - - -
12:36 9 17 mph 1020.1mb 70f 61f
12:24 11 17 mph 1020.1mb 70f 61f
12:18 9 15 mph 1020.2mb 70f 60f
12:12 14 22 mph 1020.2mb 70f 61f
12:06 16 21 mph 1020.2mb 70f 60f
12:00 14 21 mph 1020.3mb 70f 60f
11:54 11 15 mph 1020.4mb 70f 59f
11:48 11 16 mph 1020.4mb 70f 59f
11:42 13 18 mph 1020.4mb 70f 59f
11:36 8 13 mph 1020.5mb 70f 60f
11:30 14 21 mph 1020.6mb 70f 59f
11:24 13 18 mph 1020.7mb 70f 58f
11:18 15 21 mph - - -
11:12 18 23 mph 1020.6mb 70f 58f
11:06 15 22 mph 1020.7mb 70f 58f
11:00 15 21 mph 1020.7mb 70f 58f
10:54 14 20 mph 1020.8mb 70f 58f
10:48 15 20 mph 1020.8mb 70f 58f
10:42 17 22 mph 1020.8mb 70f 57f
10:36 18 23 mph 1020.9mb 70f 57f
10:30 15 21 mph 1020.9mb 70f 57f
10:24 17 23 mph 1020.9mb 70f 57f
10:18 17 21 mph 1020.9mb 70f 56f
10:12 14 20 mph 1021mb 70f 57f
10:06 14 22 mph 1021mb 70f 56f
10:00 18 24 mph 1020.9mb 70f 56f
9:54 14 23 mph 1020.9mb 70f 56f
9:48 17 23 mph 1020.9mb 70f 56f
9:42 13 21 mph 1021mb 70f 55f
9:36 15 20 mph 1020.9mb 70f 56f
9:30 14 18 mph 1020.9mb 70f 56f
9:24 13 17 mph 1020.9mb 70f 55f
9:18 14 18 mph 1021mb 70f 56f
9:12 11 16 mph 1021.1mb 70f 56f
9:06 11 16 mph 1021.1mb 70f 55f
9:00 10 15 mph 1021.1mb 70f 55f
8:54 11 18 mph 1021.1mb 70f 55f
8:48 11 18 mph 1021.1mb 70f 55f
8:42 17 21 mph 1021mb 70f 54f
8:36 14 18 mph 1021.1mb 70f 54f
8:30 10 14 mph 1021.2mb 70f 54f
8:24 10 14 mph 1021.3mb 70f 53f
8:18 10 14 mph 1021.3mb 70f 53f
8:12 14 17 mph 1021.2mb 70f 53f
8:06 10 13 mph 1021.1mb 70f 53f
8:00 10 14 mph 1021.1mb 70f 53f
7:54 9 14 mph 1021.1mb 70f 53f
7:48 9 11 mph - - -
7:42 9 13 mph 1021mb 70f 52f
7:36 8 10 mph 1020.9mb 70f 52f
7:30 8 10 mph 1020.9mb 70f 51f
7:24 8 10 mph 1020.9mb 70f 51f
7:18 7 9 mph 1020.9mb 70f 51f
7:12 6 9 mph 1020.9mb 70f 51f
7:06 6 9 mph 1020.9mb 70f 51f
7:00 9 11 mph 1020.8mb 70f 51f
6:54 9 13 mph 1020.7mb 70f 51f
6:48 8 10 mph 1020.6mb 70f 51f
6:42 9 13 mph 1020.6mb 70f 51f
6:36 9 13 mph 1020.5mb 70f 51f
6:30 8 10 mph 1020.5mb 70f 51f
6:24 6 8 mph 1020.4mb 70f 51f
6:18 7 9 mph 1020.4mb 70f 51f
6:12 7 9 mph 1020.3mb 70f 51f
6:06 7 9 mph 1020.3mb 70f 51f
6:00 7 9 mph 1020.3mb 70f 51f
5:54 7 9 mph 1020.3mb 70f 51f
5:48 7 9 mph - - -
5:42 9 10 mph 1020.2mb 70f 51f
5:36 8 9 mph 1020.2mb 70f 51f
5:30 8 9 mph 1020.1mb 70f 52f
5:24 8 10 mph 1020mb 70f 52f
5:18 7 11 mph 1019.9mb 70f 52f
5:12 9 11 mph 1019.8mb 70f 52f
5:06 8 11 mph 1019.8mb 70f 52f
5:00 8 10 mph 1019.7mb 70f 52f
4:54 7 11 mph 1019.7mb 70f 52f
4:48 9 13 mph 1019.7mb 70f 52f
4:42 7 10 mph 1019.8mb 70f 52f
4:36 8 11 mph 1019.8mb 70f 52f
4:30 10 14 mph 1019.7mb 70f 52f
4:24 10 14 mph 1019.6mb 70f 52f
4:18 8 10 mph 1019.7mb 70f 52f
4:12 7 11 mph 1019.8mb 70f 52f
4:06 8 11 mph 1019.6mb 70f 52f
4:00 8 10 mph 1019.5mb 70f 52f
3:54 8 11 mph 1019.5mb 70f 51f
3:48 9 11 mph 1019.5mb 70f 52f
3:42 9 11 mph 1019.4mb 70f 52f
3:36 8 10 mph 1019.5mb 70f 52f
3:30 9 10 mph 1019.5mb 70f -
3:24 9 11 mph 1019.3mb 70f 52f
3:18 9 13 mph 1019.4mb 70f 53f
3:12 9 14 mph 1019.4mb 70f 53f
3:06 10 13 mph 1019.4mb 70f 53f
3:00 9 14 mph 1019.4mb 70f 53f
2:54 10 13 mph 1019.5mb 70f 53f
2:48 9 13 mph 1019.5mb 70f 53f
2:42 10 13 mph 1019.5mb 70f -
2:30 8 11 mph 1019.5mb 70f 53f
2:24 10 13 mph 1019.4mb 70f 53f
2:18 9 13 mph - - -
2:12 9 13 mph 1019.5mb 70f 54f
2:06 9 11 mph 1019.5mb 70f 53f
2:00 8 10 mph 1019.4mb 70f 53f
1:54 9 11 mph 1019.4mb 70f 53f
1:48 9 11 mph 1019.4mb 70f 53f
1:42 9 13 mph - - -
1:36 9 11 mph - - -
1:30 9 11 mph 1019.3mb 71f 53f
1:24 8 13 mph 1019.3mb 71f 53f
1:18 8 10 mph 1019.3mb 71f 53f
1:12 7 10 mph 1019.2mb 71f 53f
1:06 8 11 mph 1019.2mb 71f 54f
1:00 8 10 mph 1019.2mb 71f 54f
12:54 6 8 mph 1019.2mb 71f 54f
12:48 5 6 mph - - -
12:42 6 8 mph 1019.2mb 71f 54f
12:36 5 6 mph 1019.2mb 71f 54f
12:30 5 6 mph 1019.2mb 71f 54f
12:24 5 6 mph 1019.3mb 71f 55f
12:18 5 6 mph 1019.3mb 71f 55f
12:12 5 7 mph 1019.4mb 71f 55f
12:06 6 8 mph 1019.4mb 71f 55f
12:00 6 8 mph 1019.5mb 71f 55f
Sáb 09/24 11:54 7 8 mph 1019.5mb 71f 55f
11:48 6 7 mph - - -
11:42 5 7 mph 1019.6mb 71f 55f
11:36 5 6 mph 1019.6mb 71f 55f
11:30 3 5 mph 1019.6mb 71f 55f
11:24 5 7 mph 1019.6mb 71f 55f
11:18 5 7 mph - - -
11:12 6 8 mph 1019.7mb 71f 55f
11:06 7 9 mph 1019.7mb 71f 56f
11:00 6 8 mph 1019.7mb 71f 56f
10:54 7 9 mph 1019.7mb 71f 56f
10:48 7 9 mph 1019.7mb 71f 56f
10:42 6 8 mph 1019.7mb 71f 56f
10:36 6 7 mph 1019.7mb 71f 55f
10:30 6 7 mph 1019.8mb 71f 56f
10:24 6
mph
1019.8mb 71f 56f
10:18 5 6 mph 1019.8mb - -
10:12 5 7 mph 1019.8mb 71f 57f
10:06 5 7 mph 1019.8mb 71f 57f
10:00 6 8 mph 1019.8mb 71f 57f
9:54 7 9 mph 1019.7mb 71f 57f
9:48 6 7 mph 1019.7mb - -
9:42 6 7 mph 1019.7mb 71f 57f
9:36 6 7 mph 1019.6mb 71f 57f
9:30 6 7 mph 1019.7mb 71f -
9:24 6
mph
1019.7mb 71f -
9:18 6 7 mph 1019.7mb - -
9:12 5 7 mph 1019.7mb 71f 58f
9:06 5 7 mph 1019.6mb 71f 58f
9:00 6 7 mph 1019.6mb 71f 58f
8:54 6 9 mph 1019.6mb 71f 59f
8:48 7 10 mph 1019.6mb - -
8:42 7 8 mph 1019.6mb 71f 59f
8:36 6 8 mph 1019.6mb 71f 59f
8:30 6 9 mph 1019.5mb 71f 59f
8:24 7 10 mph 1019.3mb 71f 59f
8:18 8 10 mph 1019.3mb - -
8:12 7 8 mph 1019.2mb 71f 60f
8:06 6 8 mph 1019.2mb 71f 60f
8:00 7 8 mph 1019.1mb 71f 61f
7:54 6 7 mph 1019.1mb 71f 61f
7:48 7 8 mph 1019mb 71f -
7:42 6 8 mph 1018.9mb 71f -
7:36 7 10 mph 1018.9mb 71f -
7:30 6 7 mph 1018.8mb 71f 62f
7:24 6 8 mph 1018.7mb 71f 62f
7:18 6 7 mph 1018.8mb - -
7:12 5 6 mph 1018.8mb 71f 63f
7:06 5 6 mph 1018.8mb 71f 63f
7:00  -  mph 1018.7mb 71f 63f
6:54  -  mph 1018.7mb 71f 63f
6:48 6 9 mph 1018.6mb 71f -
6:42 6 8 mph 1018.4mb 71f -
6:36 6 7 mph 1018.3mb 71f -
6:30 7 9 mph - 71f -
6:24 6 9 mph - 71f -
6:18 7 9 mph 1018.3mb - -
6:12 8 10 mph 1018.2mb 71f 65f
6:06 8 11 mph 1018.1mb 71f 65f
6:00 8 11 mph 1018.1mb 71f 65f
5:54 8 13 mph 1018mb 71f 65f
5:48 9 13 mph 1018mb 71f 65f
5:42 10 13 mph 1018mb 71f 65f
5:36 9 14 mph 1018mb 71f 66f
5:30 10 15 mph 1017.9mb 71f 65f
5:24 11 16 mph 1017.9mb 71f 66f
5:18 11 15 mph 1017.8mb 71f 66f
5:12 10 14 mph 1017.8mb 71f 66f
5:06 10 13 mph 1017.8mb 71f 66f
4:54 10 15 mph 1017.8mb 71f 66f
4:48 11 15 mph 1017.7mb 71f 66f
4:42 10 14 mph 1017.7mb 71f 67f
4:30 8 13 mph 1017.7mb 71f 67f
4:24 8 11 mph 1017.7mb 71f 66f
4:18 9 14 mph 1017.7mb 71f 66f
4:12 13 15 mph 1017.7mb 71f 66f
4:06 10 18 mph 1017.6mb 71f 66f
4:00 11 17 mph 1017.6mb 71f 66f
3:54 9 13 mph 1017.7mb 71f 65f
3:48 10 14 mph - - -
3:42 14 17 mph 1017.7mb 71f 65f
3:36 14 18 mph 1017.7mb 71f 64f
3:30 11 15 mph 1017.8mb 71f 65f
3:24 11 15 mph 1017.8mb 71f 65f
3:18 8 11 mph - - -
3:12 10 14 mph 1018mb 71f 64f
3:06 13 16 mph 1018.1mb 71f 65f
3:00 5 7 mph 1018.1mb 71f 65f
2:54 6 10 mph 1018.2mb 71f 65f
2:48 7 9 mph 1018.2mb 71f 64f
2:42 7 11 mph 1018.2mb 71f 64f
2:36 8 10 mph 1018.2mb 71f 64f
2:30 6 7 mph 1018.2mb 71f 64f
2:24 9 15 mph 1018.3mb 71f 64f
2:12 10 13 mph 1018.3mb 71f 64f
2:06 11 14 mph 1018.4mb 71f 64f
2:00 8 11 mph 1018.4mb 71f 63f
1:54 9 14 mph 1018.5mb 71f 63f
1:48 11 15 mph - - -
1:42 7 14 mph 1018.6mb 71f 64f
1:36 10 17 mph 1018.7mb 71f 63f
1:30 10 18 mph 1018.8mb 71f 63f
1:24 15 22 mph 1018.9mb 71f 63f
1:18 13 16 mph 1018.9mb 71f 63f
1:12 10 15 mph 1018.9mb 71f 63f
1:06 15 18 mph 1018.9mb 71f 63f
1:00 16 20 mph 1019mb 71f 63f
12:54 14 18 mph 1019.1mb 71f 63f
12:48 15 20 mph 1019.1mb 71f 63f
12:42 15 21 mph 1019.1mb 71f 63f
12:36 13 18 mph 1019.2mb 71f 63f
12:30 14 22 mph 1019.1mb 71f 63f
12:24 15 18 mph 1019.2mb 71f 63f
12:18 15 20 mph 1019.2mb 71f 63f
12:12 15 18 mph 1019.2mb - 63f
12:06 10 18 mph 1019.2mb - 63f
12:00 13 18 mph 1019.2mb 71f 63f
11:54 13 17 mph 1019.2mb 71f 62f
11:48 16 18 mph 1019.2mb 71f 62f
11:42 17 21 mph 1019.2mb 71f 62f
11:36 15 22 mph 1019.3mb 71f 62f
11:30 17 20 mph 1019.3mb 71f 62f
11:24 13 17 mph 1019.4mb 71f 61f
11:18 15 18 mph 1019.5mb 71f 62f
11:12 15 20 mph 1019.5mb 71f 62f
11:06 15 17 mph 1019.4mb 71f 61f
11:00 14 18 mph 1019.5mb 71f 62f
10:54 15 18 mph 1019.5mb 71f 61f
10:48 14 18 mph 1019.5mb 71f 62f
10:42 14 16 mph 1019.5mb 71f 61f
10:36 11 15 mph 1019.4mb 71f 61f
10:30 13 16 mph 1019.4mb 71f 61f
10:24 14 17 mph 1019.5mb 71f 61f
10:18 15 17 mph 1019.4mb 71f 60f
10:12 14 18 mph 1019.4mb 71f 61f
10:06 15 18 mph 1019.5mb 71f 60f
10:00 15 18 mph 1019.5mb 71f 60f
9:54 13 18 mph 1019.4mb 71f 60f
9:48 15 18 mph 1019.4mb 71f 60f
9:42 15 18 mph 1019.3mb 71f 60f
9:36 15 18 mph 1019.2mb 71f 60f
9:30 16 18 mph 1019.3mb 71f 60f
9:24 15 20 mph 1019.3mb 71f 60f
9:18 14 16 mph 1019.2mb 71f 60f
9:12 15 18 mph 1019.3mb 71f 59f
9:06 13 16 mph 1019.3mb 71f 60f
9:00 15 17 mph 1019.3mb 71f 60f
8:54 15 20 mph 1019.3mb 71f 59f
8:48 13 20 mph 1019.4mb 71f 60f
8:42 15 18 mph 1019.4mb 71f 59f
8:36 14 21 mph 1019.5mb 71f 59f
8:30 16 20 mph 1019.4mb 71f 59f
8:24 16 20 mph 1019.4mb 71f 59f
8:18 17 21 mph 1019.3mb 71f 59f
8:12 18 22 mph 1019.3mb 71f 59f
8:06 17 22 mph 1019.2mb 71f 59f
8:00 16 21 mph 1019.3mb 71f -
7:54 20 24 mph 1019.1mb 71f 59f
7:48 17 22 mph 1019mb 71f 59f
7:42 20 23 mph 1019mb 71f 59f
7:36 17 22 mph 1019.1mb 71f 59f
7:24 17 22 mph 1019.1mb 71f 59f
7:18 16 21 mph 1019mb 71f 59f
7:12 15 20 mph 1019mb 71f 59f
7:06 16 20 mph 1018.9mb 71f 59f
7:00 16 20 mph 1018.8mb 71f 60f
6:54 17 20 mph 1018.5mb 71f 60f
6:48 18 21 mph 1018.5mb 71f 59f
6:42 16 21 mph 1018.5mb 71f 60f
6:36 16 21 mph 1018.4mb 71f 60f
6:30 17 24 mph 1018.4mb 71f 60f
6:24 16 22 mph 1018.4mb 71f 60f
6:18 15 21 mph 1018.6mb 71f 60f
6:12 15 20 mph 1018.5mb 71f 59f
6:06 16 21 mph 1018.7mb 71f 59f
6:00 17 23 mph 1018.6mb 71f 59f
5:54 17 21 mph 1018.5mb 71f 59f
5:42 14 20 mph 1018.6mb 71f 59f
5:36 13 16 mph 1018.5mb 71f 59f
5:30 14 20 mph 1018.4mb 71f 59f
5:24 14 17 mph 1018.4mb 71f 59f
5:18 14 20 mph 1018.3mb 71f 60f
5:12 14 16 mph 1018.2mb 71f 59f
5:06 14 18 mph 1018.2mb 71f 59f
5:00 13 16 mph 1018.3mb 71f 59f
4:54 14 16 mph 1018.2mb 71f 59f
4:48 14 15 mph 1018.2mb 71f 59f
4:42 14 17 mph 1018.1mb 71f 59f
4:36 13 16 mph 1018.1mb 71f 59f
4:30 14 16 mph 1018.2mb 71f 59f
4:24 14 18 mph 1018.2mb 71f 59f
4:18 15 21 mph 1018.2mb 71f 59f
4:12 15 18 mph 1018.1mb 71f 59f
4:06 17 21 mph 1018.2mb 71f 59f
4:00 17 21 mph 1018mb 71f 59f
3:54 15 22 mph 1018mb 71f 59f
3:48 17 20 mph 1018.1mb 71f 59f
3:42 17 21 mph 1017.9mb 71f 60f
3:36 16 20 mph 1017.8mb 71f 59f
3:30 14 20 mph 1018mb 71f 59f
3:24 17 20 mph 1018.1mb 71f 59f
3:18 14 18 mph 1018.2mb 71f 59f
3:12 17 20 mph 1018.2mb 71f 58f
3:06 18 21 mph 1018.2mb 71f 59f
3:00 16 20 mph 1018.2mb 71f 59f
2:54 18 23 mph 1018.2mb 71f 59f
2:48 20 24 mph 1018.3mb 71f 59f
2:42 18 22 mph 1018.2mb 71f 59f
2:36 20 23 mph 1018.2mb 71f 59f
2:30 18 23 mph 1018.2mb 71f 59f
2:24 18 23 mph 1018.4mb 71f 59f
2:18 18 24 mph 1018.4mb 71f 59f
2:12 22 24 mph 1018.4mb 71f 59f
2:06 22 24 mph 1018.3mb 71f 59f
2:00 18 23 mph 1018.3mb 71f 60f
1:54 22 26 mph 1018.2mb 71f 59f
1:48 23 28 mph 1018.2mb 71f 59f
1:42 24 29 mph 1018.1mb 72f 59f
1:36 23 29 mph 1018.2mb 72f 60f
1:18 22 26 mph 1018.1mb 72f 60f
1:12 21 26 mph 1018.1mb 72f 60f
1:06 22 28 mph 1017.9mb 72f 60f
1:00 22 25 mph 1017.8mb 72f 60f
12:54 22 25 mph 1017.8mb 72f 60f
12:48 21 26 mph 1017.7mb 72f 60f
12:42 22 25 mph 1017.4mb 72f 61f
12:36 24 26 mph 1017.2mb 72f 61f
12:30 21 25 mph 1017.4mb 72f 62f
12:24 18 22 mph 1017.6mb 71f 63f
12:18 20 24 mph 1017.6mb 71f 63f
12:12 18 23 mph 1017.8mb 71f 62f
12:06 20 22 mph 1017.8mb 72f 62f
Sex 09/23 11:54 20 22 mph 1017.9mb 72f 63f
11:48 20 22 mph - - -
11:42 18 22 mph 1018mb 72f 63f
11:30 17 22 mph 1017.8mb 72f 63f
11:24 20 23 mph 1017.6mb 72f 63f
11:18 20 24 mph 1017.7mb 72f 63f
11:12 22 25 mph 1017.6mb 72f 64f
11:06 21 25 mph 1017.5mb 72f 64f
11:00 22 25 mph 1017.5mb 72f 64f
10:54 21 25 mph 1017.6mb 72f 64f
10:48 21 23 mph 1017.4mb 72f 64f
10:42 22 25 mph 1017.1mb 72f 64f
10:36 20 25 mph 1017mb 72f 64f
10:30 22 26 mph 1016.9mb 72f 64f
10:24 22 24 mph 1016.9mb 72f 64f
10:18 21 24 mph 1016.9mb 72f -
10:12 23 25 mph 1016.8mb 72f 65f
10:06 22 25 mph 1016.7mb 72f 65f
10:00 22 25 mph 1016.6mb 72f 65f
9:54 21 24 mph 1016.4mb 72f 66f
9:48 20 25 mph 1016.3mb - -
9:42 22 26 mph 1016.1mb 72f 66f
9:36 24 26 mph 1016mb 72f 66f
9:30 20 23 mph 1016.1mb 72f 67f
9:24 20 24 mph 1016.2mb 72f 67f
9:18 22 25 mph 1016.1mb - -
9:12 22 26 mph 1016.1mb 72f 67f
9:06 23 26 mph 1015.9mb 72f 68f
9:00 26 29 mph 1015.8mb 72f 68f
8:54 22 25 mph 1015.7mb 72f 68f
8:48  -  mph 1015.7mb - -
8:42  -  mph 1015.5mb 72f -
8:36  -  mph 1015.5mb 72f -
8:30 21 24 mph 1015.4mb 72f 70f
8:24 23 25 mph 1015.4mb 72f 71f
8:18 18 23 mph 1015.1mb - -
8:12 18 22 mph 1014.9mb 72f 72f
8:06 18 21 mph 1014.8mb 72f 73f
8:00 17 21 mph 1014.7mb 72f 73f
7:54 8 17 mph 1014.7mb 72f 73f
7:48 3 6 mph 1014.6mb 72f -
7:42 6 7 mph 1014.2mb 72f -
7:36 6 7 mph 1014.3mb 72f -
7:30 6 7 mph - 72f -
7:24 6
mph
- 72f -
7:18 5
mph
- - -
7:12 5 6 mph 1014.2mb 72f 73f
7:06 6
mph
1014.2mb 72f 73f
7:00 6
mph
1014.1mb 72f 73f
6:54 6
mph
1014.1mb 72f 73f
6:48 5 6 mph 1014.1mb 72f -
6:42 5
mph
1013.9mb 72f -
6:36 5 6 mph 1013.9mb 72f -
6:30 6 7 mph 1013.8mb 72f 74f
6:24 7
mph
1013.8mb 72f 74f
6:18 8
mph
1013.7mb - -
6:12 8
mph
1013.7mb 72f 73f
6:06 6
mph
1013.8mb 72f 74f
6:00 5 6 mph 1013.7mb 72f -
5:54 5 6 mph 1013.7mb 72f -
5:48 5 6 mph 1013.7mb 72f -
5:42 6
mph
1013.6mb 72f 75f
5:36 5
mph
1013.5mb 72f 75f
5:30 5 6 mph 1013.6mb 72f 76f
5:18 5 6 mph 1013.4mb 72f 75f
5:06 6 7 mph 1013.3mb 72f 74f
5:00 6 7 mph 1013.3mb 72f 74f
4:54 7 8 mph 1013.3mb 72f 74f
4:48 8
mph
1013.3mb 72f 74f
4:42 7
mph
1013.3mb 72f 74f
4:36 6
mph
1013.3mb 72f 76f
4:30 7 8 mph 1013.4mb 72f 76f
4:24 7 8 mph 1013.4mb 72f 75f
4:18 7 8 mph - - -
4:12 8 9 mph 1013.4mb 72f 75f
4:06 6 7 mph 1013.5mb 72f 75f
4:00 5 7 mph 1013.5mb 72f 78f
3:54 6 7 mph 1013.5mb 72f 78f
3:48 6 7 mph 1013.4mb 72f 78f
3:42 7 8 mph 1013.5mb 72f 78f
3:36 7 8 mph 1013.6mb 72f 78f
3:30 7 8 mph 1013.7mb 72f 78f
3:24 3 5 mph 1013.8mb 72f 76f
3:18 3 5 mph 1013.9mb 72f 76f
3:12 3 6 mph 1013.9mb 72f 75f
3:06 5 7 mph 1013.9mb 72f 74f
3:00 8
mph
1014mb 72f 74f
2:54 7 8 mph 1014mb 72f 74f
2:42 9 11 mph 1014mb 73f 73f
2:36 9 10 mph 1014mb 73f 73f
2:30 8 10 mph 1014.1mb 73f 73f
2:24 10 14 mph 1014.2mb 73f 73f
2:18 14 15 mph 1014mb 73f 73f
2:12 13 14 mph 1014.1mb 73f 73f
2:06 11 13 mph 1014.2mb 73f 73f
2:00 13 14 mph 1014.1mb 73f 73f
1:48 11 16 mph - - -
1:42 14 15 mph 1014.5mb 73f 72f
1:36 11 13 mph 1014.7mb 73f 72f
1:30 10 11 mph 1014.8mb 73f 72f
1:24 11
mph
1014.8mb 73f 72f
1:18 11 13 mph - - -
1:06 10
mph
1015.1mb 73f 73f
12:54 9 11 mph 1015.1mb 73f 73f
12:48 10 11 mph 1015mb 73f 72f
12:42 9 10 mph 1015mb 73f 72f
12:36 9 11 mph 1015.2mb 73f 72f
12:30 10 13 mph 1015.2mb 73f 71f
12:24 11 13 mph 1015.2mb 73f 71f
12:18 11 13 mph 1015.1mb 73f 71f
12:12 13 15 mph 1015.2mb 73f 71f
12:06 13 15 mph 1015.3mb 72f 70f
12:00 14 15 mph 1015.2mb 72f 70f
11:54 15 16 mph 1015.3mb 72f 70f
11:48 16 17 mph - - -
11:42 14 15 mph 1015.4mb 72f 70f
11:36 13 14 mph 1015.5mb 72f 71f
11:30 10 13 mph 1015.5mb 72f 72f
11:24 11 13 mph 1015.5mb 72f 72f
11:18 11 13 mph 1015.5mb 72f 72f
11:12 10 11 mph 1015.6mb 72f 72f
11:06 8 10 mph 1015.7mb 72f 72f
11:00 9 13 mph 1015.8mb 72f 72f
10:54 11 13 mph 1015.7mb 72f 71f
10:48 9 10 mph 1015.9mb 72f 71f
10:36 7 8 mph 1016.1mb 72f 71f
10:24 6
mph
1016.3mb 72f 71f
10:18 5 6 mph 1016.5mb 72f 71f
10:12 5
mph
1016.5mb 72f 70f
10:06 5 6 mph 1016.6mb 72f 69f
10:00 5 6 mph 1016.6mb 72f 69f
9:54 5 6 mph 1016.7mb 72f 69f
9:48 5 6 mph 1016.7mb 72f 69f
9:36 5
mph
1016.8mb 72f 69f
9:30 3 5 mph 1016.8mb 72f 69f
9:24 5
mph
1017mb 72f 68f
9:12 5 6 mph 1016.9mb 71f 68f
9:00 6 7 mph 1016.9mb 71f 68f
8:54 6 7 mph 1017mb 71f 68f
8:48 5 6 mph 1017mb 71f 68f
8:42 5 6 mph 1017mb 71f 68f
8:36 5
mph
1017.1mb 71f 67f
8:30 5 6 mph 1017mb 71f 67f
8:24 6
mph
1017.1mb 71f 66f
8:18 6 7 mph 1017.1mb 71f 66f
8:12 5 6 mph 1017.2mb 71f 66f
8:06 5
mph
1017.2mb 71f 65f
8:00 5 6 mph 1017.2mb 71f 65f
7:54 2 5 mph 1017.2mb 71f 65f
7:42 3 5 mph 1017.4mb 71f 64f
7:36 2 5 mph 1017.3mb 71f 64f
7:30 1 3 mph 1017.3mb 71f 64f
7:24 2 5 mph 1017.3mb 71f 63f
7:18 3 6 mph 1017.3mb 71f 63f
7:12 6
mph
1017.2mb 71f 63f
7:00 5 7 mph 1017mb 72f 62f
6:54 7
mph
1017mb 72f 62f
6:48 5 6 mph 1017.1mb 72f 62f
6:42 5 6 mph 1017.2mb 72f 62f
6:36 3 5 mph 1017.2mb 72f 62f
6:30 3 5 mph 1017.1mb 72f 62f
6:24 5
mph
1017.1mb 72f 61f
6:18 5 6 mph 1017mb 72f 61f
6:12 5 6 mph 1017mb 72f 61f
6:06 2 3 mph 1017mb 72f 62f
6:00 3 5 mph 1017.1mb 72f 61f
5:54 3 6 mph 1017mb 72f 61f
5:48 5 6 mph 1017mb 72f 62f
5:42 5 6 mph 1017mb 72f 62f
5:36 5 6 mph 1016.9mb 72f 61f
5:30 5 6 mph 1017mb 72f 61f
5:24 5 6 mph 1017mb 72f 62f
5:18 6 7 mph 1017mb 72f 62f
5:12 5 6 mph 1017mb 72f 62f
5:00 3 5 mph 1017.1mb 72f 62f
4:54 3 5 mph 1017.1mb 72f 62f
4:42 5 6 mph 1017.3mb 72f 62f
4:36 5
mph
1017.4mb 72f 62f
4:30 2 3 mph 1017.4mb 72f 62f
4:24 1 2 mph 1017.4mb 72f 62f
4:18 2 5 mph 1017.5mb 72f 62f
4:12 3 5 mph 1017.5mb 72f 62f
4:06 5
mph
1017.4mb 72f 62f
4:00 3
mph
1017.3mb 72f 62f
3:54 2
mph
1017.3mb 72f 62f
3:48 2 3 mph 1017.3mb 72f 61f
3:42 2
mph
1017.3mb 72f 61f
3:36 2
mph
1017.3mb 72f 62f
3:30 2 5 mph 1017.2mb 72f 62f
3:24 3 5 mph 1017.2mb 72f 62f
3:18 5 6 mph 1017.3mb 72f 63f
3:12 5
mph
1017.3mb 72f 63f
3:06 5
mph
1017.4mb 72f 63f
3:00 3
mph
1017.5mb 72f 63f
2:54 3
mph
1017.5mb 72f 63f
2:42  -  2 mph 1017.6mb 72f 64f
2:36  -  mph 1017.8mb 72f -
2:30  -  1 mph 1017.9mb 72f -
2:24 1 2 mph 1018mb 73f -
2:18 2
mph
1018mb 73f 63f
2:12 2 3 mph 1018.1mb 73f 63f
2:06 3
mph
1018.1mb 73f 63f
2:00 2
mph
1018.1mb 73f 64f
1:54 2
mph
1018.1mb 73f 64f
1:48 2 3 mph 1018.1mb 73f 64f
1:42 2 5 mph 1018.1mb 73f 64f
1:36 3 5 mph 1018.1mb 73f 64f
1:30 5 6 mph - - -
1:24 5
mph
1018.2mb 73f 65f
1:12 2 5 mph 1018.2mb 73f 65f
1:00 5 6 mph 1018.4mb 73f 65f
12:54 6
mph
1018.5mb 73f 65f
12:48 5
mph
1018.5mb 73f 65f
12:42 5 6 mph 1018.6mb 73f 65f
12:36 3 6 mph 1018.7mb 73f 65f
12:30 5 6 mph 1018.8mb 73f 65f
12:24 5 8 mph 1019mb 73f 65f
12:18 6 8 mph 1018.9mb 73f 65f
12:12 6 7 mph 1018.8mb 73f 65f
12:06 6 7 mph 1018.8mb 73f 65f
12:00 6 7 mph 1018.8mb 73f 65f
Qui 09/22 11:54 6 7 mph 1018.9mb 73f 66f
11:48 6 7 mph - - -
11:42 6
mph
1018.9mb 73f 66f
11:36 6
mph
1019mb 73f 66f
11:30 6
mph
1019.1mb 73f 66f
11:24 6
mph
1019.2mb 73f 66f
11:18 5 6 mph 1019.2mb 73f 66f
11:12 5 6 mph 1019.2mb 73f 66f
11:06 5 6 mph 1019.3mb 73f 67f
11:00 5 6 mph 1019.3mb 73f 66f
10:54 5 6 mph 1019.3mb 73f 66f
10:48 5 6 mph - - -
10:42 5 6 mph 1019.5mb 73f 66f
10:36 6
mph
1019.6mb 73f 67f
10:30 5 6 mph 1019.6mb 73f 66f
10:24 6
mph
1019.6mb 73f -
10:18 6
mph
1019.7mb 73f -
10:12 6 7 mph 1019.7mb 73f -
10:06 6
mph
1019.7mb 73f -
10:00  -  mph 1019.6mb 73f 67f
9:54 6 8 mph 1019.7mb 73f 67f
9:48 7 8 mph 1019.7mb 73f 67f
9:42 7 8 mph 1019.7mb 73f 67f
9:36 7 8 mph 1019.7mb 73f -
9:30 7 8 mph 1019.7mb 73f -
9:24 6 7 mph 1019.8mb 73f -
9:18 6 7 mph 1019.8mb 73f -
9:12 7 8 mph 1019.8mb 73f -
9:06 7 8 mph 1019.8mb 73f -
9:00 6 7 mph - 73f 69f
8:54 7
mph
1020mb 73f 69f
8:48 7
mph
1020mb 73f -
8:42 7
mph
1020.1mb 73f 69f
8:36 6 7 mph 1020mb 73f 69f
8:30 6 7 mph 1020mb 73f 69f
8:18 7 8 mph 1020mb 73f 70f
8:12 7
mph
- - -
8:06 7
mph
- - -
8:00 7 8 mph 1019.8mb 73f 71f
7:54 8
mph
1019.8mb 73f 71f
7:48 7 8 mph 1019.8mb 73f 71f
7:42 6 7 mph 1019.8mb 73f -
7:36 7
mph
1019.7mb 73f -
7:30 6 7 mph - - -
7:24 6 9 mph - 73f 72f
7:18 8 9 mph - - -
7:12 8 9 mph 1019.7mb 73f -
7:06 8
mph
1019.7mb 73f -
7:00 8 9 mph - 73f 72f
6:54 7 9 mph - 73f 72f
6:48 9 10 mph - - -
6:42 8 10 mph 1019.7mb 73f -
6:36 8 10 mph 1019.7mb 73f -
6:30 9 10 mph 1019.7mb 73f 73f
6:24 10 11 mph 1019.7mb 73f 74f
6:18 10 11 mph 1019.7mb - -
6:12 10 11 mph 1019.8mb 73f 74f
6:06 10 11 mph 1019.8mb 73f 74f
6:00 10 11 mph 1019.8mb - -
5:54 10 11 mph 1019.8mb 73f 74f
5:48 10 11 mph - - -
5:36 9 10 mph 1019.8mb 73f 74f
5:30 10 11 mph 1019.8mb 73f 75f
5:24 9 11 mph 1019.7mb 73f 75f
5:18 10 11 mph 1019.8mb 73f 75f
5:12 9 10 mph 1019.8mb 73f 75f
5:06 9 10 mph 1019.8mb 73f 75f
5:00 10 11 mph 1019.8mb 73f 75f
4:54 11 13 mph 1019.8mb 72f 75f
4:48 11 13 mph 1019.8mb 72f 75f
4:30 13 14 mph 1019.8mb 72f 75f
4:24 13 14 mph 1019.8mb 72f 75f
4:18 11 13 mph - - -
4:06 11 13 mph 1020mb - 75f
4:00 10 11 mph 1020.1mb 72f 75f
3:54 10 11 mph 1020.1mb 72f 75f
3:48 9 11 mph 1020.1mb 72f 75f
3:42 10
mph
1020.1mb 72f 76f
3:36 10 11 mph 1020.1mb 72f 76f
3:30 10 11 mph 1020mb 72f 76f
3:24 10 11 mph 1020mb 72f 76f
3:18 10 11 mph 1020.1mb 72f 76f
3:12 10
mph
1020.1mb 72f 75f
3:06 8
mph
1020.1mb 72f 76f
3:00 6 7 mph 1020.1mb 72f 76f
2:54 5
mph
1020.1mb 72f 77f
2:42 2 3 mph 1020.1mb 72f 76f
2:36 3 5 mph 1020.2mb 72f 76f
2:30 5
mph
1020.2mb 72f 76f
2:24 5 6 mph 1020.3mb 72f 76f
2:18 5 6 mph 1020.3mb 72f 76f
2:12 3 6 mph 1020.3mb 72f 76f
2:06 6
mph
1020.3mb 72f 76f
2:00 5 6 mph 1020.4mb 72f 75f
1:48 6 7 mph 1020.5mb 72f 75f
1:42 6 7 mph 1020.6mb 72f 75f
1:36 6 7 mph 1020.6mb 72f 75f
1:30 7 9 mph 1020.8mb 72f 75f
1:24 9 10 mph 1020.9mb 72f 74f
1:18 9 10 mph 1021mb 72f 74f
1:12 10 11 mph 1021.1mb 72f 74f
1:06 10 11 mph 1021.2mb 72f 74f
1:00 8 9 mph 1021.4mb 72f 75f
12:54 9 11 mph 1021.4mb 72f 75f
12:48 10 13 mph - - -
12:42 11 13 mph 1021.5mb 72f 75f
12:36 11 13 mph 1021.6mb 72f 75f
12:30 9 10 mph 1021.6mb 72f 75f
12:24 7 8 mph 1021.7mb 72f 75f
12:18 6 7 mph 1021.7mb 72f 75f
12:12 6
mph
1021.7mb 72f 75f
12:06 6
mph
1021.8mb 72f 75f
12:00 6
mph
1021.8mb 72f 74f
11:54 5 8 mph 1021.9mb 72f 74f
11:48 1 3 mph 1022.1mb 72f 76f
11:42 2 3 mph 1022.1mb 72f 75f
11:36 3 5 mph 1022.1mb 72f 74f
11:30 3 5 mph 1022.3mb 72f -
11:24 3
mph
1022.4mb 72f 74f
11:12 3 5 mph 1022.4mb 72f 74f
11:06 5
mph
1022.5mb 72f 74f
11:00 5 6 mph 1022.4mb 72f 74f
10:54 5 6 mph 1022.4mb 72f 73f
10:48 5
mph
1022.5mb 72f 73f
10:42 5 6 mph 1022.5mb 72f 72f
10:36 6
mph
1022.5mb 72f 72f
10:30 5 7 mph 1022.5mb 72f 72f
10:24 5 6 mph 1022.5mb 72f 71f
10:18 5 6 mph 1022.5mb 72f 71f
10:12 5 6 mph 1022.4mb 72f 71f
10:06 6
mph
1022.4mb 72f 70f
10:00 5 6 mph 1022.4mb - -
9:54 5 6 mph 1022.4mb 72f 70f
9:48 5 7 mph - - -
9:36 6 7 mph 1022.4mb 72f 69f
9:30 6 7 mph 1022.4mb 72f 69f
9:24 6 7 mph 1022.3mb 72f 68f
9:18 6 7 mph 1022.3mb 72f 68f
9:12 7 9 mph 1022.2mb 72f 68f
9:06 7 9 mph 1022.1mb 72f 69f
9:00 8 10 mph 1022.1mb 72f 68f
8:54 9 13 mph 1022mb 72f 68f
8:48 10 11 mph 1022mb 72f 68f
8:42 9 10 mph 1021.9mb 72f 67f
8:36 9
mph
1021.8mb 72f 67f
8:30 7 9 mph 1021.8mb - -
8:24 5 8 mph 1021.8mb 72f 67f
8:18 6 7 mph 1021.8mb 72f 66f
8:12 5 6 mph 1021.7mb 72f 66f
8:06 5 6 mph 1021.8mb 72f 66f
8:00 3 5 mph 1021.8mb 72f 65f
7:54 5 6 mph 1021.8mb 72f 65f
7:48 6
mph
1021.8mb 72f 65f
7:42 5 6 mph 1021.7mb 72f 65f
7:36 5 6 mph 1021.7mb 72f 65f
7:30 3 6 mph 1021.7mb 72f 65f
7:18 3
mph
1021.6mb 72f 64f
7:06 3 5 mph 1021.5mb 72f 64f
7:00 3 5 mph 1021.5mb 71f 64f
6:54 3 6 mph 1021.4mb 72f 63f
6:48 5 6 mph 1021.5mb 71f 63f
6:42 3
mph
1021.5mb 72f 63f
6:36 3 5 mph 1021.4mb 72f 63f
6:30 3 5 mph 1021.4mb 72f 63f
6:24 3
mph
1021.3mb 72f 63f
6:18 3
mph
1021.3mb 72f 63f
6:12 3
mph
1021.3mb 72f 63f
6:06 3 5 mph 1021.3mb 72f 63f
6:00 2
mph
1021.3mb 72f 63f
5:54 2
mph
1021.2mb 72f 63f
5:48  -  1 mph 1021.2mb 72f 63f
5:42  -  1 mph 1021.2mb 72f 63f